sensor_id;sensor_type;location;lat;lon;timestamp;temperature;humidity
8988;DHT22;4529;51.360;12.474;2022-10-28T00:03:54;15.90;99.90
8988;DHT22;4529;51.360;12.474;2022-10-28T00:08:57;16.00;99.90
8988;DHT22;4529;51.360;12.474;2022-10-28T00:14:02;16.10;99.90
8988;DHT22;4529;51.360;12.474;2022-10-28T00:19:04;16.10;99.90
8988;DHT22;4529;51.360;12.474;2022-10-28T00:24:08;16.10;99.90
8988;DHT22;4529;51.360;12.474;2022-10-28T00:29:12;16.10;99.90
8988;DHT22;4529;51.360;12.474;2022-10-28T00:34:15;16.10;99.90
8988;DHT22;4529;51.360;12.474;2022-10-28T00:39:21;16.00;99.90
8988;DHT22;4529;51.360;12.474;2022-10-28T00:44:47;15.90;99.90
8988;DHT22;4529;51.360;12.474;2022-10-28T00:49:46;15.90;99.90
8988;DHT22;4529;51.360;12.474;2022-10-28T00:54:50;15.90;99.90
8988;DHT22;4529;51.360;12.474;2022-10-28T00:59:54;15.90;99.90
8988;DHT22;4529;51.360;12.474;2022-10-28T01:04:58;15.90;99.90
8988;DHT22;4529;51.360;12.474;2022-10-28T01:10:03;16.00;99.90
8988;DHT22;4529;51.360;12.474;2022-10-28T01:15:36;15.80;99.90
8988;DHT22;4529;51.360;12.474;2022-10-28T01:37:04;15.90;99.90
8988;DHT22;4529;51.360;12.474;2022-10-28T01:42:14;15.90;99.90
8988;DHT22;4529;51.360;12.474;2022-10-28T01:47:30;15.90;99.90
8988;DHT22;4529;51.360;12.474;2022-10-28T01:52:29;15.90;99.90
8988;DHT22;4529;51.360;12.474;2022-10-28T01:57:32;16.00;99.90
8988;DHT22;4529;51.360;12.474;2022-10-28T02:02:36;16.00;99.90
8988;DHT22;4529;51.360;12.474;2022-10-28T02:07:39;15.90;99.90
8988;DHT22;4529;51.360;12.474;2022-10-28T02:12:43;15.90;99.90
8988;DHT22;4529;51.360;12.474;2022-10-28T02:23:26;15.90;99.90
8988;DHT22;4529;51.360;12.474;2022-10-28T02:28:41;16.00;99.90
8988;DHT22;4529;51.360;12.474;2022-10-28T02:33:43;16.00;99.90
8988;DHT22;4529;51.360;12.474;2022-10-28T02:38:51;16.00;99.90
8988;DHT22;4529;51.360;12.474;2022-10-28T02:43:52;15.90;99.90
8988;DHT22;4529;51.360;12.474;2022-10-28T02:48:55;15.90;99.90
8988;DHT22;4529;51.360;12.474;2022-10-28T02:54:15;15.80;99.90
8988;DHT22;4529;51.360;12.474;2022-10-28T02:59:15;15.80;99.90
8988;DHT22;4529;51.360;12.474;2022-10-28T03:04:19;15.70;99.90
8988;DHT22;4529;51.360;12.474;2022-10-28T03:09:23;15.70;99.90
8988;DHT22;4529;51.360;12.474;2022-10-28T03:14:28;15.70;99.90
8988;DHT22;4529;51.360;12.474;2022-10-28T03:19:32;15.60;99.90
8988;DHT22;4529;51.360;12.474;2022-10-28T03:24:36;15.60;99.90
8988;DHT22;4529;51.360;12.474;2022-10-28T03:29:39;15.60;99.90
8988;DHT22;4529;51.360;12.474;2022-10-28T03:34:43;15.70;99.90
8988;DHT22;4529;51.360;12.474;2022-10-28T03:39:47;15.70;99.90
8988;DHT22;4529;51.360;12.474;2022-10-28T03:44:51;15.80;99.90
8988;DHT22;4529;51.360;12.474;2022-10-28T03:49:55;15.80;99.90
8988;DHT22;4529;51.360;12.474;2022-10-28T03:54:59;15.80;99.90
8988;DHT22;4529;51.360;12.474;2022-10-28T04:00:04;15.90;99.90
8988;DHT22;4529;51.360;12.474;2022-10-28T04:05:08;15.90;99.90
8988;DHT22;4529;51.360;12.474;2022-10-28T04:10:12;15.80;99.90
8988;DHT22;4529;51.360;12.474;2022-10-28T04:15:16;15.80;99.90
8988;DHT22;4529;51.360;12.474;2022-10-28T04:20:20;15.70;99.90
8988;DHT22;4529;51.360;12.474;2022-10-28T04:25:25;15.70;99.90
8988;DHT22;4529;51.360;12.474;2022-10-28T04:30:28;15.70;99.90
8988;DHT22;4529;51.360;12.474;2022-10-28T04:35:33;15.70;99.90
8988;DHT22;4529;51.360;12.474;2022-10-28T04:40:37;15.70;99.90
8988;DHT22;4529;51.360;12.474;2022-10-28T04:45:41;15.70;99.90
8988;DHT22;4529;51.360;12.474;2022-10-28T04:50:45;15.50;99.90
8988;DHT22;4529;51.360;12.474;2022-10-28T04:55:49;15.40;99.90
8988;DHT22;4529;51.360;12.474;2022-10-28T05:00:53;15.40;99.90
8988;DHT22;4529;51.360;12.474;2022-10-28T05:05:57;15.40;99.90
8988;DHT22;4529;51.360;12.474;2022-10-28T05:11:02;15.40;99.90
8988;DHT22;4529;51.360;12.474;2022-10-28T05:16:06;15.50;99.90
8988;DHT22;4529;51.360;12.474;2022-10-28T05:21:09;15.50;99.90
8988;DHT22;4529;51.360;12.474;2022-10-28T05:26:13;15.40;99.90
8988;DHT22;4529;51.360;12.474;2022-10-28T05:31:17;15.40;99.90
8988;DHT22;4529;51.360;12.474;2022-10-28T05:36:21;15.30;99.90
8988;DHT22;4529;51.360;12.474;2022-10-28T05:41:25;15.30;99.90
8988;DHT22;4529;51.360;12.474;2022-10-28T05:46:29;15.30;99.90
8988;DHT22;4529;51.360;12.474;2022-10-28T05:51:34;15.40;99.90
8988;DHT22;4529;51.360;12.474;2022-10-28T05:56:38;15.40;99.90
8988;DHT22;4529;51.360;12.474;2022-10-28T06:01:42;15.40;99.90
8988;DHT22;4529;51.360;12.474;2022-10-28T06:06:46;15.50;99.90
8988;DHT22;4529;51.360;12.474;2022-10-28T06:11:50;15.60;99.90
8988;DHT22;4529;51.360;12.474;2022-10-28T06:16:54;15.70;99.90
8988;DHT22;4529;51.360;12.474;2022-10-28T06:21:58;15.80;99.90
8988;DHT22;4529;51.360;12.474;2022-10-28T06:27:03;15.80;99.90
8988;DHT22;4529;51.360;12.474;2022-10-28T06:32:09;15.80;99.90
8988;DHT22;4529;51.360;12.474;2022-10-28T06:37:13;15.70;99.90
8988;DHT22;4529;51.360;12.474;2022-10-28T06:42:21;15.70;99.90
8988;DHT22;4529;51.360;12.474;2022-10-28T06:47:25;15.70;99.90
8988;DHT22;4529;51.360;12.474;2022-10-28T06:52:28;15.70;99.90
8988;DHT22;4529;51.360;12.474;2022-10-28T06:57:31;15.70;99.90
8988;DHT22;4529;51.360;12.474;2022-10-28T07:02:35;15.80;99.90
8988;DHT22;4529;51.360;12.474;2022-10-28T07:07:38;16.00;99.90
8988;DHT22;4529;51.360;12.474;2022-10-28T07:12:42;16.00;99.90
8988;DHT22;4529;51.360;12.474;2022-10-28T07:17:55;16.00;99.90
8988;DHT22;4529;51.360;12.474;2022-10-28T07:22:55;16.00;99.90
8988;DHT22;4529;51.360;12.474;2022-10-28T07:27:59;16.40;99.90
8988;DHT22;4529;51.360;12.474;2022-10-28T07:33:03;16.40;99.90
8988;DHT22;4529;51.360;12.474;2022-10-28T07:38:06;16.70;99.90
8988;DHT22;4529;51.360;12.474;2022-10-28T07:43:09;17.10;99.90
8988;DHT22;4529;51.360;12.474;2022-10-28T07:48:12;17.40;99.90
8988;DHT22;4529;51.360;12.474;2022-10-28T07:53:16;17.40;99.90
8988;DHT22;4529;51.360;12.474;2022-10-28T07:58:19;17.40;99.90
8988;DHT22;4529;51.360;12.474;2022-10-28T08:03:23;17.50;99.90
8988;DHT22;4529;51.360;12.474;2022-10-28T08:08:26;17.50;99.90
8988;DHT22;4529;51.360;12.474;2022-10-28T08:13:30;17.60;99.90
8988;DHT22;4529;51.360;12.474;2022-10-28T08:18:35;17.90;99.90
8988;DHT22;4529;51.360;12.474;2022-10-28T08:23:38;17.90;99.90
8988;DHT22;4529;51.360;12.474;2022-10-28T08:28:41;18.00;99.90
8988;DHT22;4529;51.360;12.474;2022-10-28T08:33:45;18.00;99.90
8988;DHT22;4529;51.360;12.474;2022-10-28T08:38:48;18.00;99.90
8988;DHT22;4529;51.360;12.474;2022-10-28T08:49:12;18.10;99.90
8988;DHT22;4529;51.360;12.474;2022-10-28T08:54:20;18.10;99.90
8988;DHT22;4529;51.360;12.474;2022-10-28T08:59:24;18.10;99.90
8988;DHT22;4529;51.360;12.474;2022-10-28T09:04:37;18.20;99.90
8988;DHT22;4529;51.360;12.474;2022-10-28T09:09:40;18.20;99.90
8988;DHT22;4529;51.360;12.474;2022-10-28T09:14:47;18.30;99.90
8988;DHT22;4529;51.360;12.474;2022-10-28T09:19:48;18.60;99.90
8988;DHT22;4529;51.360;12.474;2022-10-28T09:25:12;18.60;99.90
8988;DHT22;4529;51.360;12.474;2022-10-28T09:30:44;18.70;99.90
8988;DHT22;4529;51.360;12.474;2022-10-28T09:35:39;18.80;99.90
8988;DHT22;4529;51.360;12.474;2022-10-28T09:40:41;19.10;99.90
8988;DHT22;4529;51.360;12.474;2022-10-28T09:45:45;19.30;99.90
8988;DHT22;4529;51.360;12.474;2022-10-28T09:50:51;19.60;99.90
8988;DHT22;4529;51.360;12.474;2022-10-28T09:55:54;19.60;99.90
8988;DHT22;4529;51.360;12.474;2022-10-28T10:00:58;19.70;99.90
8988;DHT22;4529;51.360;12.474;2022-10-28T10:06:04;19.70;99.90
8988;DHT22;4529;51.360;12.474;2022-10-28T10:11:06;19.80;99.90
8988;DHT22;4529;51.360;12.474;2022-10-28T10:16:14;19.90;99.90
8988;DHT22;4529;51.360;12.474;2022-10-28T10:21:15;19.90;99.90
8988;DHT22;4529;51.360;12.474;2022-10-28T10:26:19;19.90;99.90
8988;DHT22;4529;51.360;12.474;2022-10-28T10:31:24;19.80;99.90
8988;DHT22;4529;51.360;12.474;2022-10-28T10:36:26;19.80;99.90
8988;DHT22;4529;51.360;12.474;2022-10-28T10:41:39;19.70;99.90
8988;DHT22;4529;51.360;12.474;2022-10-28T10:46:41;19.80;99.90
8988;DHT22;4529;51.360;12.474;2022-10-28T10:52:12;19.80;99.90
8988;DHT22;4529;51.360;12.474;2022-10-28T10:57:19;20.00;99.90
8988;DHT22;4529;51.360;12.474;2022-10-28T11:02:30;20.20;99.90
8988;DHT22;4529;51.360;12.474;2022-10-28T11:07:30;20.40;99.90
8988;DHT22;4529;51.360;12.474;2022-10-28T11:12:35;20.90;99.90
8988;DHT22;4529;51.360;12.474;2022-10-28T11:17:39;21.10;99.90
8988;DHT22;4529;51.360;12.474;2022-10-28T11:22:48;21.30;99.90
8988;DHT22;4529;51.360;12.474;2022-10-28T11:44:30;21.80;99.90
8988;DHT22;4529;51.360;12.474;2022-10-28T11:50:05;21.80;99.90
8988;DHT22;4529;51.360;12.474;2022-10-28T11:55:27;22.10;99.90
8988;DHT22;4529;51.360;12.474;2022-10-28T12:11:42;22.40;99.90
8988;DHT22;4529;51.360;12.474;2022-10-28T12:22:10;22.50;99.90
8988;DHT22;4529;51.360;12.474;2022-10-28T12:32:23;22.80;99.90
8988;DHT22;4529;51.360;12.474;2022-10-28T12:37:30;22.90;99.90
8988;DHT22;4529;51.360;12.474;2022-10-28T12:42:36;22.90;99.90
8988;DHT22;4529;51.360;12.474;2022-10-28T12:47:48;23.00;99.90
8988;DHT22;4529;51.360;12.474;2022-10-28T12:58:33;22.80;99.90
8988;DHT22;4529;51.360;12.474;2022-10-28T13:03:35;22.70;99.90
8988;DHT22;4529;51.360;12.474;2022-10-28T13:19:42;22.40;99.90
8988;DHT22;4529;51.360;12.474;2022-10-28T13:30:13;22.40;99.90
8988;DHT22;4529;51.360;12.474;2022-10-28T13:45:59;22.50;99.90
8988;DHT22;4529;51.360;12.474;2022-10-28T13:56:26;22.10;99.90
8988;DHT22;4529;51.360;12.474;2022-10-28T14:02:00;22.10;99.90
8988;DHT22;4529;51.360;12.474;2022-10-28T14:07:02;22.00;99.90
8988;DHT22;4529;51.360;12.474;2022-10-28T14:12:31;21.90;99.90
8988;DHT22;4529;51.360;12.474;2022-10-28T14:17:39;21.80;99.90
8988;DHT22;4529;51.360;12.474;2022-10-28T14:22:42;21.90;99.90
8988;DHT22;4529;51.360;12.474;2022-10-28T14:27:45;21.80;99.90
8988;DHT22;4529;51.360;12.474;2022-10-28T14:38:44;21.80;99.90
8988;DHT22;4529;51.360;12.474;2022-10-28T14:49:24;21.70;99.90
8988;DHT22;4529;51.360;12.474;2022-10-28T14:54:36;21.80;99.90
8988;DHT22;4529;51.360;12.474;2022-10-28T14:59:42;21.70;99.90
8988;DHT22;4529;51.360;12.474;2022-10-28T15:04:47;21.60;99.90
8988;DHT22;4529;51.360;12.474;2022-10-28T15:09:53;21.70;99.90
8988;DHT22;4529;51.360;12.474;2022-10-28T15:14:57;21.70;99.90
8988;DHT22;4529;51.360;12.474;2022-10-28T15:20:09;21.60;99.90
8988;DHT22;4529;51.360;12.474;2022-10-28T15:25:05;21.60;99.90
8988;DHT22;4529;51.360;12.474;2022-10-28T15:30:20;21.60;99.90
8988;DHT22;4529;51.360;12.474;2022-10-28T15:40:34;21.50;99.90
8988;DHT22;4529;51.360;12.474;2022-10-28T15:45:37;21.50;99.90
8988;DHT22;4529;51.360;12.474;2022-10-28T15:50:41;21.50;99.90
8988;DHT22;4529;51.360;12.474;2022-10-28T15:55:44;21.40;99.90
8988;DHT22;4529;51.360;12.474;2022-10-28T16:00:54;21.40;99.90
8988;DHT22;4529;51.360;12.474;2022-10-28T16:06:02;21.30;99.90
8988;DHT22;4529;51.360;12.474;2022-10-28T16:11:05;21.30;99.90
8988;DHT22;4529;51.360;12.474;2022-10-28T16:16:12;21.20;99.90
8988;DHT22;4529;51.360;12.474;2022-10-28T16:21:16;21.10;99.90
8988;DHT22;4529;51.360;12.474;2022-10-28T16:26:18;21.00;99.90
8988;DHT22;4529;51.360;12.474;2022-10-28T16:31:22;21.00;99.90
8988;DHT22;4529;51.360;12.474;2022-10-28T16:36:25;21.00;99.90
8988;DHT22;4529;51.360;12.474;2022-10-28T16:41:28;20.90;99.90
8988;DHT22;4529;51.360;12.474;2022-10-28T16:46:32;20.80;99.90
8988;DHT22;4529;51.360;12.474;2022-10-28T16:51:35;20.80;99.90
8988;DHT22;4529;51.360;12.474;2022-10-28T16:56:39;20.80;99.90
8988;DHT22;4529;51.360;12.474;2022-10-28T17:01:42;20.70;99.90
8988;DHT22;4529;51.360;12.474;2022-10-28T17:06:46;20.70;99.90
8988;DHT22;4529;51.360;12.474;2022-10-28T17:11:49;20.60;99.90
8988;DHT22;4529;51.360;12.474;2022-10-28T17:16:53;20.50;99.90
8988;DHT22;4529;51.360;12.474;2022-10-28T17:21:57;20.40;99.90
8988;DHT22;4529;51.360;12.474;2022-10-28T17:27:02;20.40;99.90
8988;DHT22;4529;51.360;12.474;2022-10-28T17:32:05;20.30;99.90
8988;DHT22;4529;51.360;12.474;2022-10-28T17:37:08;20.20;99.90
8988;DHT22;4529;51.360;12.474;2022-10-28T17:42:12;20.20;99.90
8988;DHT22;4529;51.360;12.474;2022-10-28T17:47:15;20.00;99.90
8988;DHT22;4529;51.360;12.474;2022-10-28T17:52:19;19.90;99.90
8988;DHT22;4529;51.360;12.474;2022-10-28T17:57:22;19.70;99.90
8988;DHT22;4529;51.360;12.474;2022-10-28T18:02:26;19.60;99.90
8988;DHT22;4529;51.360;12.474;2022-10-28T18:07:29;19.50;99.90
8988;DHT22;4529;51.360;12.474;2022-10-28T18:12:33;19.40;99.90
8988;DHT22;4529;51.360;12.474;2022-10-28T18:17:36;19.30;99.90
8988;DHT22;4529;51.360;12.474;2022-10-28T18:22:40;19.40;99.90
8988;DHT22;4529;51.360;12.474;2022-10-28T18:27:43;19.40;99.90
8988;DHT22;4529;51.360;12.474;2022-10-28T18:32:47;19.40;99.90
8988;DHT22;4529;51.360;12.474;2022-10-28T18:37:51;19.30;99.90
8988;DHT22;4529;51.360;12.474;2022-10-28T18:42:54;19.20;99.90
8988;DHT22;4529;51.360;12.474;2022-10-28T18:47:57;19.20;99.90
8988;DHT22;4529;51.360;12.474;2022-10-28T18:53:01;19.20;99.90
8988;DHT22;4529;51.360;12.474;2022-10-28T18:58:05;19.10;99.90
8988;DHT22;4529;51.360;12.474;2022-10-28T19:03:17;19.10;99.90
8988;DHT22;4529;51.360;12.474;2022-10-28T19:08:21;19.00;99.90
8988;DHT22;4529;51.360;12.474;2022-10-28T19:13:25;19.00;99.90
8988;DHT22;4529;51.360;12.474;2022-10-28T19:18:29;18.90;99.90
8988;DHT22;4529;51.360;12.474;2022-10-28T19:23:33;18.80;99.90
8988;DHT22;4529;51.360;12.474;2022-10-28T19:28:41;18.70;99.90
8988;DHT22;4529;51.360;12.474;2022-10-28T19:33:44;18.70;99.90
8988;DHT22;4529;51.360;12.474;2022-10-28T19:38:49;18.60;99.90
8988;DHT22;4529;51.360;12.474;2022-10-28T19:43:52;18.50;99.90
8988;DHT22;4529;51.360;12.474;2022-10-28T19:48:56;18.50;99.90
8988;DHT22;4529;51.360;12.474;2022-10-28T19:54:00;18.30;99.90
8988;DHT22;4529;51.360;12.474;2022-10-28T19:59:05;18.20;99.90
8988;DHT22;4529;51.360;12.474;2022-10-28T20:04:08;18.30;99.90
8988;DHT22;4529;51.360;12.474;2022-10-28T20:09:17;18.30;99.90
8988;DHT22;4529;51.360;12.474;2022-10-28T20:14:20;18.20;99.90
8988;DHT22;4529;51.360;12.474;2022-10-28T20:19:23;18.20;99.90
8988;DHT22;4529;51.360;12.474;2022-10-28T20:24:27;18.20;99.90
8988;DHT22;4529;51.360;12.474;2022-10-28T20:29:30;18.10;99.90
8988;DHT22;4529;51.360;12.474;2022-10-28T20:34:34;18.20;99.90
8988;DHT22;4529;51.360;12.474;2022-10-28T20:39:37;18.10;99.90
8988;DHT22;4529;51.360;12.474;2022-10-28T20:44:41;18.20;99.90
8988;DHT22;4529;51.360;12.474;2022-10-28T20:49:44;18.10;99.90
8988;DHT22;4529;51.360;12.474;2022-10-28T20:54:48;18.00;99.90
8988;DHT22;4529;51.360;12.474;2022-10-28T20:59:51;18.10;99.90
8988;DHT22;4529;51.360;12.474;2022-10-28T21:04:55;18.10;99.90
8988;DHT22;4529;51.360;12.474;2022-10-28T21:09:58;17.90;99.90
8988;DHT22;4529;51.360;12.474;2022-10-28T21:15:02;17.70;99.90
8988;DHT22;4529;51.360;12.474;2022-10-28T21:20:05;17.40;99.90
8988;DHT22;4529;51.360;12.474;2022-10-28T21:25:09;17.20;99.90
8988;DHT22;4529;51.360;12.474;2022-10-28T21:30:12;17.00;99.90
8988;DHT22;4529;51.360;12.474;2022-10-28T21:35:22;17.20;99.90
8988;DHT22;4529;51.360;12.474;2022-10-28T21:40:26;17.20;99.90
8988;DHT22;4529;51.360;12.474;2022-10-28T21:45:29;17.20;99.90
8988;DHT22;4529;51.360;12.474;2022-10-28T21:50:33;17.30;99.90
8988;DHT22;4529;51.360;12.474;2022-10-28T21:55:37;17.30;99.90
8988;DHT22;4529;51.360;12.474;2022-10-28T22:00:41;17.40;99.90
8988;DHT22;4529;51.360;12.474;2022-10-28T22:05:49;17.40;99.90
8988;DHT22;4529;51.360;12.474;2022-10-28T22:11:02;17.40;99.90
8988;DHT22;4529;51.360;12.474;2022-10-28T22:16:05;17.50;99.90
8988;DHT22;4529;51.360;12.474;2022-10-28T22:21:12;17.60;99.90
8988;DHT22;4529;51.360;12.474;2022-10-28T22:26:26;17.90;99.90
8988;DHT22;4529;51.360;12.474;2022-10-28T22:31:30;17.90;99.90
8988;DHT22;4529;51.360;12.474;2022-10-28T22:36:33;17.90;99.90
8988;DHT22;4529;51.360;12.474;2022-10-28T22:41:36;17.80;99.90
8988;DHT22;4529;51.360;12.474;2022-10-28T22:46:40;17.70;99.90
8988;DHT22;4529;51.360;12.474;2022-10-28T22:51:43;17.70;99.90
8988;DHT22;4529;51.360;12.474;2022-10-28T22:56:47;17.60;99.90
8988;DHT22;4529;51.360;12.474;2022-10-28T23:01:50;17.50;99.90
8988;DHT22;4529;51.360;12.474;2022-10-28T23:06:53;17.50;99.90
8988;DHT22;4529;51.360;12.474;2022-10-28T23:11:57;17.50;99.90
8988;DHT22;4529;51.360;12.474;2022-10-28T23:17:00;17.40;99.90
8988;DHT22;4529;51.360;12.474;2022-10-28T23:22:04;17.40;99.90
8988;DHT22;4529;51.360;12.474;2022-10-28T23:27:07;17.30;99.90
8988;DHT22;4529;51.360;12.474;2022-10-28T23:32:11;17.40;99.90
8988;DHT22;4529;51.360;12.474;2022-10-28T23:37:14;17.50;99.90
8988;DHT22;4529;51.360;12.474;2022-10-28T23:42:18;17.50;99.90
8988;DHT22;4529;51.360;12.474;2022-10-28T23:47:21;17.50;99.90
8988;DHT22;4529;51.360;12.474;2022-10-28T23:52:25;17.40;99.90
8988;DHT22;4529;51.360;12.474;2022-10-28T23:57:28;17.40;99.90
